Time;durP1;ratioP1;P1;durP2;ratioP2;P2;SDS_P1;SDS_P2;PMS_P1;PMS_P2;Temp;Humidity;BMP_temperature;BMP_pressure;BME280_temperature;BME280_humidity;BME280_pressure;Samples;Min_cycle;Max_cycle;Signal;HPM_P1;HPM_P2
2021/08/12 00:02:24;;;;;;;6.50;5.70;;;22.50;78.50;;;;;;5116103;28;20059;-74
2021/08/12 00:04:51;;;;;;;7.40;6.00;;;22.40;78.30;;;;;;5116511;28;20258;-73
2021/08/12 00:07:17;;;;;;;9.35;6.13;;;22.50;78.20;;;;;;5116044;28;20031;-74
2021/08/12 00:09:43;;;;;;;10.82;6.15;;;22.40;78.30;;;;;;5116276;28;20020;-74
2021/08/12 00:12:09;;;;;;;7.78;5.50;;;22.40;78.50;;;;;;5116726;28;20477;-73
2021/08/12 00:14:34;;;;;;;9.23;6.15;;;22.40;78.30;;;;;;5116222;28;20050;-74
2021/08/12 00:17:00;;;;;;;10.55;6.25;;;22.40;78.40;;;;;;5115634;28;20034;-73
2021/08/12 00:19:26;;;;;;;7.35;5.68;;;22.40;78.50;;;;;;5116367;28;20019;-74
2021/08/12 00:21:51;;;;;;;7.07;5.75;;;22.30;78.60;;;;;;5115982;28;20023;-73
2021/08/12 00:24:21;;;;;;;7.82;5.65;;;22.30;78.80;;;;;;5115747;28;20020;-74
2021/08/12 00:26:48;;;;;;;7.78;6.22;;;22.30;78.90;;;;;;5115951;28;20022;-72
2021/08/12 00:29:14;;;;;;;7.43;5.88;;;22.30;78.90;;;;;;5116273;28;20361;-73
2021/08/12 00:31:39;;;;;;;7.40;5.93;;;22.30;78.80;;;;;;5115497;28;20020;-73
2021/08/12 00:34:05;;;;;;;9.50;6.05;;;22.40;78.80;;;;;;5115910;28;20463;-74
2021/08/12 00:36:31;;;;;;;8.68;5.90;;;22.40;78.80;;;;;;5115895;28;20023;-73
2021/08/12 00:38:56;;;;;;;7.32;5.50;;;22.30;79.00;;;;;;5116151;28;20110;-74
2021/08/12 00:41:22;;;;;;;7.20;5.57;;;22.30;79.20;;;;;;5115893;28;20131;-74
2021/08/12 00:43:48;;;;;;;6.40;5.60;;;22.20;79.50;;;;;;5116065;28;20112;-74
2021/08/12 00:46:14;;;;;;;6.07;5.28;;;22.20;79.80;;;;;;5115213;28;20023;-74
2021/08/12 00:48:40;;;;;;;6.22;4.95;;;22.20;79.90;;;;;;5115236;28;20026;-75
2021/08/12 00:51:05;;;;;;;7.40;5.40;;;22.20;80.30;;;;;;5115372;28;20020;-76
2021/08/12 00:53:33;;;;;;;9.18;5.35;;;22.20;80.40;;;;;;5115293;28;20036;-75
2021/08/12 00:55:59;;;;;;;7.05;5.75;;;22.20;80.60;;;;;;5115557;28;20026;-73
2021/08/12 00:58:25;;;;;;;7.90;5.10;;;22.20;80.80;;;;;;5115285;28;20023;-74
2021/08/12 01:00:51;;;;;;;9.20;5.72;;;22.10;81.00;;;;;;5115163;28;20019;-75
2021/08/12 01:03:17;;;;;;;7.88;5.53;;;22.00;81.30;;;;;;5114865;28;20051;-74
2021/08/12 01:05:54;;;;;;;6.50;5.65;;;22.10;81.30;;;;;;5115254;28;20094;-75
2021/08/12 01:08:29;;;;;;;8.07;5.57;;;22.10;81.50;;;;;;5115457;28;20041;-76
2021/08/12 01:10:59;;;;;;;6.90;5.50;;;22.00;81.60;;;;;;5114689;28;20102;-74
2021/08/12 01:13:49;;;;;;;7.22;5.35;;;22.10;81.70;;;;;;5114203;28;20033;-75
2021/08/12 01:16:16;;;;;;;;;;;22.00;81.90;;;;;;5115220;28;20034;-77
2021/08/12 01:18:50;;;;;;;6.40;5.15;;;21.90;82.30;;;;;;5114938;28;20413;-73
2021/08/12 01:21:24;;;;;;;8.27;5.55;;;21.90;82.60;;;;;;5114694;28;20027;-74
2021/08/12 01:23:50;;;;;;;9.20;6.07;;;21.90;82.90;;;;;;5114536;28;20115;-75
2021/08/12 01:26:18;;;;;;;6.90;5.30;;;21.90;83.10;;;;;;5114909;28;20051;-75
2021/08/12 01:28:46;;;;;;;5.65;4.82;;;21.90;83.40;;;;;;5114752;28;20016;-75
2021/08/12 01:31:21;;;;;;;5.80;4.95;;;21.80;83.60;;;;;;5114362;28;20016;-75
2021/08/12 01:34:11;;;;;;;7.45;5.50;;;21.80;83.80;;;;;;5114667;28;20072;-76
2021/08/12 01:36:42;;;;;;;8.40;5.57;;;21.90;83.80;;;;;;5114640;28;20118;-75
2021/08/12 01:39:11;;;;;;;6.28;5.28;;;21.80;84.00;;;;;;5114666;28;20424;-74
2021/08/12 01:41:38;;;;;;;6.45;5.35;;;21.80;84.30;;;;;;5114463;28;20047;-75
2021/08/12 01:44:05;;;;;;;8.52;5.75;;;21.80;84.50;;;;;;5114740;28;20058;-75
2021/08/12 01:46:32;;;;;;;6.15;5.25;;;21.80;84.90;;;;;;5114227;28;20026;-73
2021/08/12 01:49:00;;;;;;;5.70;5.10;;;21.70;84.90;;;;;;5114529;28;20016;-74
2021/08/12 01:51:27;;;;;;;8.77;5.20;;;21.70;85.20;;;;;;5114354;28;20090;-75
2021/08/12 01:53:54;;;;;;;6.70;4.90;;;21.60;85.50;;;;;;5114467;28;20026;-76
2021/08/12 01:56:20;;;;;;;6.93;5.38;;;21.60;85.70;;;;;;5114340;28;20023;-75
2021/08/12 01:58:47;;;;;;;6.80;5.35;;;21.60;85.70;;;;;;5114087;28;20028;-78
2021/08/12 02:01:14;;;;;;;5.68;5.03;;;21.60;85.80;;;;;;5114126;28;20157;-75
2021/08/12 02:03:41;;;;;;;8.63;5.07;;;21.60;85.90;;;;;;5113793;28;20723;-76
2021/08/12 02:06:07;;;;;;;7.97;5.70;;;21.50;86.00;;;;;;5114121;28;20034;-74
2021/08/12 02:08:33;;;;;;;7.00;5.65;;;21.60;86.30;;;;;;5114398;28;20092;-76
2021/08/12 02:10:59;;;;;;;6.03;5.28;;;21.60;85.90;;;;;;5114079;28;20408;-75
2021/08/12 02:13:25;;;;;;;7.45;5.57;;;21.60;86.10;;;;;;5114532;28;20106;-75
2021/08/12 02:15:51;;;;;;;7.25;5.75;;;21.60;86.30;;;;;;5114288;28;20497;-77
2021/08/12 02:18:17;;;;;;;8.18;5.30;;;21.50;86.50;;;;;;5114387;28;20369;-77
2021/08/12 02:20:50;;;;;;;6.35;5.30;;;21.40;86.70;;;;;;5114467;28;20062;-77
2021/08/12 02:23:26;;;;;;;6.72;5.65;;;21.50;86.40;;;;;;5113859;28;20023;-76
2021/08/12 02:26:00;;;;;;;5.88;5.18;;;21.50;86.40;;;;;;5117319;28;20497;-77
2021/08/12 02:28:28;;;;;;;6.85;5.40;;;21.50;86.30;;;;;;5118313;28;20024;-74
2021/08/12 02:30:55;;;;;;;6.82;5.35;;;21.40;86.40;;;;;;5118300;28;20094;-75
2021/08/12 02:33:27;;;;;;;9.00;5.97;;;21.30;86.50;;;;;;5118025;28;20544;-76
2021/08/12 02:35:53;;;;;;;6.05;5.18;;;21.30;86.70;;;;;;5118372;28;20055;-72
2021/08/12 02:38:20;;;;;;;6.82;5.53;;;21.30;86.80;;;;;;5117263;28;20456;-77
2021/08/12 02:40:47;;;;;;;6.55;5.28;;;21.30;86.50;;;;;;5118130;28;20028;-75
2021/08/12 02:43:14;;;;;;;6.63;5.38;;;21.30;86.80;;;;;;5117990;28;20024;-76
2021/08/12 02:45:41;;;;;;;6.65;5.63;;;21.30;86.80;;;;;;5117984;28;20400;-75
2021/08/12 02:48:10;;;;;;;6.80;5.65;;;21.30;87.00;;;;;;5118159;28;20068;-76
2021/08/12 02:50:42;;;;;;;7.95;5.70;;;21.20;87.20;;;;;;5117947;28;20095;-75
2021/08/12 02:53:09;;;;;;;6.97;5.60;;;21.10;87.50;;;;;;5117937;28;20177;-73
2021/08/12 02:55:36;;;;;;;8.73;5.60;;;21.10;87.80;;;;;;5117888;28;20023;-77
2021/08/12 02:58:03;;;;;;;7.80;5.43;;;21.10;87.90;;;;;;5116719;28;20358;-76
2021/08/12 03:00:29;;;;;;;6.10;5.10;;;21.10;88.10;;;;;;5117861;28;20015;-76
2021/08/12 03:02:55;;;;;;;9.95;5.65;;;21.00;88.20;;;;;;5117227;28;20122;-77
2021/08/12 03:05:21;;;;;;;6.13;5.30;;;21.00;88.40;;;;;;5117622;28;20077;-78
2021/08/12 03:07:50;;;;;;;7.40;5.50;;;21.00;88.50;;;;;;5116193;28;20414;-77
2021/08/12 03:10:19;;;;;;;8.63;5.50;;;21.00;88.80;;;;;;5116271;28;20020;-74
2021/08/12 03:12:46;;;;;;;7.68;5.65;;;20.90;89.20;;;;;;5117631;28;20016;-76
2021/08/12 03:15:13;;;;;;;10.38;5.57;;;21.00;89.50;;;;;;5115800;28;20107;-74
2021/08/12 03:17:39;;;;;;;7.53;5.78;;;21.00;89.50;;;;;;5117127;28;20024;-74
2021/08/12 03:20:07;;;;;;;7.35;6.00;;;21.00;89.70;;;;;;5117010;28;20019;-75
2021/08/12 03:22:36;;;;;;;8.48;5.72;;;21.00;89.80;;;;;;5115517;28;20106;-73
2021/08/12 03:25:02;;;;;;;8.20;6.03;;;21.10;89.60;;;;;;5115985;28;20046;-77
2021/08/12 17:38:19;;;;;;;7.65;4.55;;;23.80;62.70;;;;;;5110699;27;20446;-72
2021/08/12 17:40:45;;;;;;;6.47;4.13;;;23.30;63.80;;;;;;5110738;28;20510;-73
2021/08/12 17:43:11;;;;;;;5.38;3.90;;;23.30;64.20;;;;;;5110747;28;20027;-73
2021/08/12 17:45:38;;;;;;;5.53;3.80;;;23.30;64.40;;;;;;5111007;28;20081;-73
2021/08/12 17:48:04;;;;;;;5.68;4.15;;;23.40;64.20;;;;;;5110874;28;20073;-73
2021/08/12 17:50:30;;;;;;;5.47;4.60;;;23.40;64.20;;;;;;5110512;28;20099;-73
2021/08/12 17:52:56;;;;;;;7.13;4.45;;;23.50;64.00;;;;;;5111548;28;20031;-73
2021/08/12 17:55:22;;;;;;;9.82;4.50;;;23.60;64.00;;;;;;5109055;28;20027;-73
2021/08/12 17:57:48;;;;;;;5.93;4.43;;;23.50;64.10;;;;;;5110043;28;20394;-73
2021/08/12 18:00:14;;;;;;;9.15;4.50;;;23.60;64.10;;;;;;5110052;28;20043;-73
2021/08/12 18:02:40;;;;;;;6.47;4.22;;;23.60;63.90;;;;;;5109957;28;20111;-73
2021/08/12 18:05:10;;;;;;;5.47;4.15;;;23.60;64.00;;;;;;5110047;28;20449;-73
2021/08/12 18:07:36;;;;;;;5.53;4.18;;;23.60;64.00;;;;;;5110110;28;20023;-73
2021/08/12 18:10:03;;;;;;;7.93;3.97;;;23.60;64.20;;;;;;5109846;28;20085;-73
2021/08/12 18:12:29;;;;;;;7.07;4.03;;;23.60;64.30;;;;;;5109616;28;20020;-74
2021/08/12 18:14:55;;;;;;;5.95;3.80;;;23.60;64.50;;;;;;5110424;28;20035;-73
2021/08/12 18:17:22;;;;;;;5.28;3.70;;;23.60;64.50;;;;;;5110281;28;20417;-73
2021/08/12 18:19:47;;;;;;;6.78;4.43;;;23.60;64.60;;;;;;5110359;28;20424;-73
2021/08/12 18:22:13;;;;;;;5.00;4.20;;;23.60;64.90;;;;;;5109265;28;20024;-72
2021/08/12 18:24:39;;;;;;;5.65;3.88;;;23.50;65.10;;;;;;5110635;28;20370;-73
2021/08/12 18:27:05;;;;;;;4.78;3.97;;;23.50;65.20;;;;;;5110178;28;20127;-73
2021/08/12 18:29:31;;;;;;;7.78;4.25;;;23.50;65.30;;;;;;5110164;28;20039;-73
2021/08/12 18:31:57;;;;;;;5.43;4.15;;;23.50;65.80;;;;;;5110352;28;20019;-73
2021/08/12 18:34:24;;;;;;;6.47;4.32;;;23.40;66.20;;;;;;5110007;28;20022;-72
2021/08/12 18:36:50;;;;;;;5.57;4.00;;;23.40;66.40;;;;;;5109657;28;20059;-73
2021/08/12 18:39:16;;;;;;;7.22;4.72;;;23.40;66.80;;;;;;5110082;28;20020;-73
2021/08/12 18:41:42;;;;;;;6.90;4.32;;;23.30;66.80;;;;;;5109914;28;20042;-73
2021/08/12 18:44:08;;;;;;;6.30;4.20;;;23.30;66.50;;;;;;5109861;28;20462;-73
2021/08/12 18:46:33;;;;;;;6.20;4.35;;;23.30;66.20;;;;;;5109891;28;20025;-72
2021/08/12 18:49:01;;;;;;;7.20;4.40;;;23.30;65.70;;;;;;5099749;28;20024;-72
2021/08/12 18:51:27;;;;;;;5.15;3.88;;;23.30;65.60;;;;;;5096050;28;20024;-72
2021/08/12 18:53:53;;;;;;;5.80;4.20;;;23.30;65.50;;;;;;5096049;28;20012;-73
2021/08/12 18:56:18;;;;;;;5.60;4.35;;;23.30;65.70;;;;;;5095732;28;20467;-73
2021/08/12 18:58:44;;;;;;;6.82;4.45;;;23.20;66.10;;;;;;5095938;28;20089;-72
2021/08/12 19:01:10;;;;;;;7.13;4.63;;;23.10;66.30;;;;;;5096131;28;20035;-73
2021/08/12 19:03:36;;;;;;;7.70;4.65;;;23.10;66.60;;;;;;5096396;28;20069;-73
2021/08/12 19:06:02;;;;;;;6.28;4.65;;;23.10;67.00;;;;;;5095948;28;20035;-72
2021/08/12 19:08:27;;;;;;;7.63;5.03;;;23.10;67.30;;;;;;5095805;28;20016;-72
2021/08/12 19:10:53;;;;;;;9.07;4.97;;;23.00;67.40;;;;;;5096254;28;20031;-72
2021/08/12 19:13:19;;;;;;;8.50;4.60;;;22.90;67.70;;;;;;5096548;28;20399;-72
2021/08/12 19:15:44;;;;;;;8.13;4.55;;;22.80;67.70;;;;;;5096333;28;20487;-72
2021/08/12 19:18:10;;;;;;;7.97;4.57;;;22.70;67.70;;;;;;5096124;28;20106;-72
2021/08/12 19:20:36;;;;;;;9.43;4.63;;;22.70;68.30;;;;;;5096544;28;20039;-72
2021/08/12 19:23:02;;;;;;;8.63;4.55;;;22.60;68.50;;;;;;5095478;28;20039;-72
2021/08/12 19:25:27;;;;;;;6.43;4.95;;;22.50;68.70;;;;;;5095090;28;20058;-72
2021/08/12 19:27:53;;;;;;;8.95;5.10;;;22.40;69.20;;;;;;5096354;28;20071;-72
2021/08/12 19:30:19;;;;;;;10.77;5.40;;;22.30;69.60;;;;;;5096109;28;20016;-72
2021/08/12 19:32:45;;;;;;;5.65;4.45;;;22.30;70.00;;;;;;5095581;28;20077;-72
2021/08/12 19:35:11;;;;;;;7.97;4.72;;;22.20;70.20;;;;;;5095916;28;20035;-72
2021/08/12 19:37:37;;;;;;;7.10;4.75;;;22.20;70.50;;;;;;5095445;28;20044;-72
2021/08/12 19:40:04;;;;;;;8.63;4.80;;;22.10;70.90;;;;;;5095869;28;20091;-72
2021/08/12 19:42:30;;;;;;;7.35;4.47;;;22.00;71.10;;;;;;5095387;28;20030;-72
2021/08/12 19:44:56;;;;;;;6.03;4.60;;;22.00;71.50;;;;;;5095605;28;20016;-72
2021/08/12 19:47:22;;;;;;;8.25;4.55;;;21.90;71.80;;;;;;5095343;28;20051;-72
2021/08/12 19:49:50;;;;;;;7.90;4.65;;;21.90;72.00;;;;;;5095541;28;20059;-72
2021/08/12 19:52:15;;;;;;;6.38;4.43;;;21.90;71.80;;;;;;5095731;28;20031;-72
2021/08/12 19:54:41;;;;;;;8.45;4.45;;;21.90;71.60;;;;;;5094749;28;20036;-72
2021/08/12 19:57:07;;;;;;;6.82;5.00;;;21.90;71.00;;;;;;5095186;28;20024;-72
2021/08/12 19:59:32;;;;;;;8.25;4.57;;;21.80;70.60;;;;;;5093404;28;20111;-72
2021/08/12 20:01:58;;;;;;;6.40;4.40;;;21.90;70.60;;;;;;5093193;28;20528;-72
2021/08/12 20:04:24;;;;;;;6.90;4.50;;;21.80;70.80;;;;;;5095221;28;20020;-72
2021/08/12 20:06:49;;;;;;;9.15;4.72;;;21.80;71.30;;;;;;5094997;28;20107;-72
2021/08/12 20:09:16;;;;;;;6.35;4.50;;;21.70;71.60;;;;;;5109138;28;20427;-72
2021/08/12 20:11:42;;;;;;;10.93;5.35;;;21.70;71.90;;;;;;5115335;28;20026;-72
2021/08/12 20:14:08;;;;;;;7.95;4.57;;;21.70;71.70;;;;;;5115682;27;20028;-72
2021/08/12 20:16:34;;;;;;;8.38;5.30;;;21.70;71.50;;;;;;5115136;28;20031;-72
2021/08/12 20:18:59;;;;;;;9.35;5.10;;;21.70;71.70;;;;;;5098822;28;20417;-72
2021/08/12 20:21:25;;;;;;;7.88;4.90;;;21.60;71.80;;;;;;5107047;28;20099;-72
2021/08/12 20:23:51;;;;;;;9.15;4.68;;;21.60;71.80;;;;;;5097907;28;20052;-72
2021/08/12 20:26:17;;;;;;;7.55;4.85;;;21.60;71.60;;;;;;5095186;28;20500;-72
2021/08/12 20:28:43;;;;;;;10.10;4.68;;;21.60;71.60;;;;;;5093855;28;20095;-72
2021/08/12 20:31:11;;;;;;;7.85;4.70;;;21.50;71.40;;;;;;5094867;28;20056;-71
2021/08/12 20:33:37;;;;;;;6.53;4.30;;;21.60;71.30;;;;;;5094865;28;20024;-72
2021/08/12 20:36:03;;;;;;;6.43;4.20;;;21.50;71.20;;;;;;5094541;28;20038;-72
2021/08/12 20:38:28;;;;;;;7.75;5.25;;;21.50;71.50;;;;;;5094405;28;20020;-72
2021/08/12 20:40:54;;;;;;;6.65;5.25;;;21.60;71.10;;;;;;5094451;28;20385;-72
2021/08/12 20:43:20;;;;;;;6.28;4.50;;;21.50;71.00;;;;;;5094180;28;20363;-71
2021/08/12 20:45:45;;;;;;;8.35;4.90;;;21.60;70.90;;;;;;5093309;28;20375;-72
2021/08/12 20:48:11;;;;;;;8.98;5.13;;;21.60;70.80;;;;;;5093575;28;20038;-72
2021/08/12 20:50:37;;;;;;;8.77;4.88;;;21.60;70.80;;;;;;5094211;28;20039;-72
2021/08/12 20:53:04;;;;;;;7.50;4.47;;;21.60;70.90;;;;;;5094070;28;20047;-72
2021/08/12 20:55:29;;;;;;;6.85;4.40;;;21.50;71.00;;;;;;5094296;28;20020;-72
2021/08/12 20:57:55;;;;;;;8.98;4.88;;;21.50;71.10;;;;;;5094256;28;20046;-72
2021/08/12 21:00:21;;;;;;;5.75;4.65;;;21.50;71.30;;;;;;5094010;28;20024;-72
2021/08/12 21:02:47;;;;;;;5.78;4.60;;;21.40;71.30;;;;;;5093992;28;20035;-72
2021/08/12 21:05:12;;;;;;;6.75;4.82;;;21.40;71.60;;;;;;5093890;28;20028;-72
2021/08/12 21:07:38;;;;;;;7.30;5.15;;;21.40;71.70;;;;;;5093997;28;20528;-72
2021/08/12 21:10:06;;;;;;;6.32;4.40;;;21.40;71.70;;;;;;5094170;28;20056;-72
2021/08/12 21:12:32;;;;;;;5.70;4.50;;;21.40;71.90;;;;;;5093936;28;20057;-73
2021/08/12 21:14:57;;;;;;;10.35;4.93;;;21.40;71.90;;;;;;5094049;28;20028;-72
2021/08/12 21:17:23;;;;;;;5.82;4.30;;;21.40;72.00;;;;;;5094415;28;20046;-72
2021/08/12 21:19:49;;;;;;;6.57;4.63;;;21.40;72.10;;;;;;5093711;28;20069;-73
2021/08/12 21:22:15;;;;;;;7.32;4.68;;;21.30;72.20;;;;;;5094006;28;20062;-73
2021/08/12 21:24:41;;;;;;;9.45;4.85;;;21.30;72.40;;;;;;5093933;28;20039;-72
2021/08/12 21:27:07;;;;;;;6.45;4.68;;;21.30;72.40;;;;;;5093631;28;20081;-72
2021/08/12 21:29:33;;;;;;;7.22;4.93;;;21.30;72.40;;;;;;5093550;28;20103;-72
2021/08/12 21:31:59;;;;;;;6.90;4.82;;;21.30;72.50;;;;;;5093902;28;20043;-73
2021/08/12 21:34:28;;;;;;;6.55;4.32;;;21.30;72.60;;;;;;5094084;28;20031;-72
2021/08/12 21:36:56;;;;;;;7.18;4.60;;;21.20;72.80;;;;;;5093694;28;20493;-72
2021/08/12 21:39:23;;;;;;;6.78;4.35;;;21.20;72.90;;;;;;5093870;28;20025;-72
2021/08/12 21:41:49;;;;;;;8.15;4.68;;;21.20;73.00;;;;;;5092355;28;20420;-72
2021/08/12 21:44:14;;;;;;;7.05;4.80;;;21.20;73.20;;;;;;5094048;28;20032;-72
2021/08/12 21:46:40;;;;;;;5.75;4.50;;;21.10;73.40;;;;;;5093791;28;20572;-72
2021/08/12 21:49:06;;;;;;;5.88;4.28;;;21.00;73.60;;;;;;5093557;28;20032;-72
2021/08/12 21:51:36;;;;;;;7.32;4.72;;;21.00;73.90;;;;;;5093762;28;20038;-72
2021/08/12 21:54:02;;;;;;;7.78;4.53;;;21.00;74.00;;;;;;5093518;28;20031;-72
2021/08/12 21:56:28;;;;;;;7.57;4.82;;;20.90;74.20;;;;;;5093942;28;20085;-72
2021/08/12 21:58:58;;;;;;;7.68;4.38;;;20.90;74.30;;;;;;5093472;28;20024;-72
2021/08/12 22:01:25;;;;;;;5.47;4.50;;;20.90;74.40;;;;;;5093657;28;20069;-72
2021/08/12 22:03:51;;;;;;;6.03;4.18;;;20.90;74.60;;;;;;5093525;28;20344;-72
2021/08/12 22:06:16;;;;;;;5.65;4.03;;;20.80;74.70;;;;;;5093760;28;20028;-72
2021/08/12 22:08:42;;;;;;;7.05;4.38;;;20.80;74.90;;;;;;5093709;28;20026;-72
2021/08/12 22:11:08;;;;;;;5.88;4.07;;;20.80;75.00;;;;;;5093911;28;20036;-72
2021/08/12 22:13:33;;;;;;;5.80;4.57;;;20.80;75.10;;;;;;5093658;28;20024;-72
2021/08/12 22:15:59;;;;;;;7.13;4.72;;;20.90;75.20;;;;;;5078908;28;20035;-72
2021/08/12 22:18:25;;;;;;;8.13;4.30;;;20.80;75.30;;;;;;5081762;28;20027;-72
2021/08/12 22:20:50;;;;;;;6.32;4.07;;;20.90;75.40;;;;;;5093535;28;20030;-72
2021/08/12 22:23:16;;;;;;;5.68;3.95;;;20.80;75.50;;;;;;5094542;28;20052;-72
2021/08/12 22:25:42;;;;;;;7.28;4.38;;;20.80;75.50;;;;;;5097162;28;20024;-72
2021/08/12 22:28:11;;;;;;;6.68;4.45;;;20.80;75.70;;;;;;5096475;28;20043;-72
2021/08/12 22:30:39;;;;;;;5.68;4.40;;;20.80;75.80;;;;;;5097349;28;20455;-72
2021/08/12 22:33:09;;;;;;;4.40;3.85;;;20.80;75.80;;;;;;5097167;28;20024;-72
2021/08/12 22:35:34;;;;;;;;;;;20.80;76.00;;;;;;5097307;28;20557;-72
2021/08/12 22:38:00;;;;;;;6.60;4.50;;;20.70;75.90;;;;;;5095480;28;19994;-72
2021/08/12 22:40:26;;;;;;;6.97;4.43;;;20.70;76.30;;;;;;5097021;28;20047;-72
2021/08/12 22:42:53;;;;;;;8.27;4.80;;;20.70;76.30;;;;;;5097185;28;20455;-72
2021/08/12 22:45:19;;;;;;;5.70;4.43;;;20.80;76.40;;;;;;5095232;28;20363;-72
2021/08/12 22:47:44;;;;;;;7.13;4.80;;;20.70;77.10;;;;;;5097037;28;20043;-72
2021/08/12 22:50:11;;;;;;;6.68;3.97;;;20.80;76.50;;;;;;5097009;28;20032;-72
2021/08/12 22:52:38;;;;;;;7.63;4.55;;;20.70;76.60;;;;;;5095424;28;20420;-72
2021/08/12 22:55:06;;;;;;;6.60;4.43;;;20.70;76.80;;;;;;5096329;28;20028;-72
2021/08/12 22:57:31;;;;;;;6.00;4.10;;;20.60;77.00;;;;;;5096662;28;20362;-72
2021/08/12 22:59:57;;;;;;;8.32;5.47;;;20.60;77.40;;;;;;5096527;28;20029;-73
2021/08/12 23:02:23;;;;;;;6.07;4.55;;;20.50;77.50;;;;;;5096565;28;20016;-72
2021/08/12 23:04:48;;;;;;;6.22;4.35;;;20.50;77.80;;;;;;5096863;28;20074;-73
2021/08/12 23:07:14;;;;;;;6.95;4.10;;;20.50;78.00;;;;;;5096605;28;20069;-73
2021/08/12 23:09:40;;;;;;;7.13;4.55;;;20.50;78.10;;;;;;5096110;28;20035;-73
2021/08/12 23:12:07;;;;;;;5.72;4.43;;;20.50;78.20;;;;;;5096366;28;20028;-72
2021/08/12 23:14:33;;;;;;;6.65;4.03;;;20.40;78.20;;;;;;5096049;28;20537;-73
2021/08/12 23:16:58;;;;;;;5.22;4.22;;;20.40;78.30;;;;;;5096109;28;20056;-73
2021/08/12 23:19:24;;;;;;;6.40;4.00;;;20.30;78.60;;;;;;5096045;28;20047;-72
2021/08/12 23:21:51;;;;;;;7.70;4.70;;;20.30;78.80;;;;;;5095975;28;20059;-73
2021/08/12 23:24:16;;;;;;;8.18;4.95;;;20.30;79.00;;;;;;5096252;28;20016;-72
2021/08/12 23:26:42;;;;;;;6.55;4.03;;;20.30;79.00;;;;;;5095909;28;20024;-72
2021/08/12 23:29:08;;;;;;;7.45;4.50;;;20.30;79.10;;;;;;5095991;28;20059;-72
2021/08/12 23:31:34;;;;;;;7.00;4.35;;;20.30;79.20;;;;;;5096094;28;20032;-72
2021/08/12 23:34:00;;;;;;;7.10;4.50;;;20.30;79.30;;;;;;5095534;28;20032;-72
2021/08/12 23:36:26;;;;;;;7.93;4.38;;;20.30;79.60;;;;;;5095375;28;20077;-71
2021/08/12 23:38:52;;;;;;;6.22;4.32;;;20.30;79.70;;;;;;5095730;28;20025;-72
2021/08/12 23:41:19;;;;;;;6.85;4.28;;;20.20;79.70;;;;;;5095862;28;20020;-72
2021/08/12 23:43:44;;;;;;;8.32;4.60;;;20.20;79.70;;;;;;5095306;28;20078;-72
2021/08/12 23:46:10;;;;;;;5.10;4.20;;;20.20;79.90;;;;;;5095735;28;20024;-72
2021/08/12 23:48:36;;;;;;;7.78;4.57;;;20.20;80.00;;;;;;5095888;28;20078;-72
2021/08/12 23:51:04;;;;;;;8.68;4.80;;;20.20;80.20;;;;;;5095790;28;20023;-72
2021/08/12 23:53:30;;;;;;;7.50;4.53;;;20.20;80.40;;;;;;5095626;28;20030;-72
2021/08/12 23:55:56;;;;;;;7.65;4.70;;;20.10;80.60;;;;;;5095537;28;20024;-72
2021/08/12 23:58:21;;;;;;;7.07;4.18;;;20.10;80.70;;;;;;5094227;28;20028;-72
